Time;durP1;ratioP1;P1;durP2;ratioP2;P2;SDS_P1;SDS_P2;PMS_P1;PMS_P2;Temp;Humidity;BMP_temperature;BMP_pressure;BME280_temperature;BME280_humidity;BME280_pressure;Samples;Min_cycle;Max_cycle;Signal;HPM_P1;HPM_P2
2023/12/09 00:00:08;;;;;;;12.77;5.73;;;8.60;1.00;;;;;;5010920;28;20399;-70
2023/12/09 00:02:35;;;;;;;12.75;5.30;;;8.50;1.00;;;;;;5011285;28;20458;-69
2023/12/09 00:05:01;;;;;;;11.40;6.18;;;8.50;1.00;;;;;;5009627;28;20399;-70
2023/12/09 00:07:26;;;;;;;11.65;5.30;;;8.50;1.00;;;;;;5009866;28;20397;-69
2023/12/09 00:09:52;;;;;;;15.00;6.13;;;8.40;1.00;;;;;;5009684;28;20493;-69
2023/12/09 00:12:17;;;;;;;11.30;5.33;;;8.50;1.00;;;;;;5011129;28;20405;-69
2023/12/09 00:14:43;;;;;;;13.55;5.88;;;8.50;1.00;;;;;;5010102;28;20945;-69
2023/12/09 00:17:08;;;;;;;12.53;5.80;;;8.50;1.00;;;;;;5010572;28;20400;-69
2023/12/09 00:19:34;;;;;;;12.17;5.70;;;8.60;1.00;;;;;;5010209;28;20424;-69
2023/12/09 00:21:59;;;;;;;14.55;5.80;;;8.60;1.00;;;;;;5009603;28;20393;-69
2023/12/09 00:24:25;;;;;;;13.27;6.25;;;8.60;1.00;;;;;;5009668;28;20431;-69
2023/12/09 00:26:50;;;;;;;17.47;7.07;;;8.60;1.00;;;;;;5009820;28;20869;-69
2023/12/09 00:29:16;;;;;;;12.97;6.10;;;8.50;1.00;;;;;;5009676;28;20944;-69
2023/12/09 00:31:41;;;;;;;16.90;6.80;;;8.60;1.00;;;;;;5010012;28;20393;-69
2023/12/09 00:34:07;;;;;;;16.67;6.27;;;8.50;1.00;;;;;;5010414;28;20400;-69
2023/12/09 00:36:32;;;;;;;15.45;7.32;;;8.40;1.00;;;;;;5009332;28;20393;-69
2023/12/09 00:38:58;;;;;;;11.70;5.40;;;8.30;1.00;;;;;;5009942;28;20426;-69
2023/12/09 00:41:24;;;;;;;14.93;7.23;;;8.30;1.00;;;;;;4993898;28;20489;-69
2023/12/09 00:43:50;;;;;;;15.10;7.45;;;8.30;1.00;;;;;;5009177;28;20408;-69
2023/12/09 00:46:15;;;;;;;15.10;6.50;;;8.30;1.00;;;;;;4997146;28;20775;-69
2023/12/09 00:48:41;;;;;;;13.35;6.35;;;8.30;1.00;;;;;;5009662;28;20991;-69
2023/12/09 00:51:06;;;;;;;14.23;6.70;;;8.20;1.00;;;;;;5010000;28;20455;-69
2023/12/09 00:53:32;;;;;;;15.75;6.50;;;8.30;1.00;;;;;;5009835;28;20471;-69
2023/12/09 00:55:57;;;;;;;14.47;5.73;;;8.20;1.00;;;;;;5003257;28;20405;-69
2023/12/09 00:58:23;;;;;;;12.40;6.43;;;8.10;1.00;;;;;;5009126;28;20830;-69
2023/12/09 01:00:48;;;;;;;17.17;7.55;;;8.20;1.00;;;;;;5009240;28;20396;-69
2023/12/09 01:03:14;;;;;;;15.10;6.77;;;8.10;1.00;;;;;;5009183;28;20869;-69
2023/12/09 01:05:39;;;;;;;15.07;7.20;;;8.10;1.00;;;;;;5001024;28;20401;-69
2023/12/09 01:08:05;;;;;;;15.13;7.38;;;8.20;1.00;;;;;;5005871;28;20479;-69
2023/12/09 01:10:30;;;;;;;15.07;6.47;;;8.30;1.00;;;;;;5009029;28;20931;-69
2023/12/09 01:12:56;;;;;;;12.53;5.97;;;8.20;1.00;;;;;;5009079;28;20745;-69
2023/12/09 01:15:21;;;;;;;12.15;6.82;;;8.20;1.00;;;;;;5004167;28;20441;-69
2023/12/09 01:17:47;;;;;;;14.47;5.93;;;8.20;1.00;;;;;;5002584;28;20381;-69
2023/12/09 01:20:14;;;;;;;12.87;6.00;;;8.20;1.00;;;;;;5008838;28;20928;-69
2023/12/09 01:22:39;;;;;;;13.25;6.22;;;8.20;1.00;;;;;;5006897;28;20404;-69
2023/12/09 01:25:06;;;;;;;12.23;5.87;;;8.20;1.00;;;;;;5006969;28;20396;-69
2023/12/09 01:27:31;;;;;;;13.98;5.65;;;8.30;1.00;;;;;;5008884;28;20377;-69
2023/12/09 01:29:57;;;;;;;12.20;5.13;;;8.40;1.00;;;;;;5008631;28;20563;-69
2023/12/09 01:32:22;;;;;;;15.40;6.30;;;8.30;1.00;;;;;;5008890;28;20443;-69
2023/12/09 01:34:48;;;;;;;12.80;5.82;;;8.30;1.00;;;;;;5008109;28;20799;-69
2023/12/09 01:37:14;;;;;;;12.37;5.87;;;8.30;1.00;;;;;;4999324;28;20974;-69
2023/12/09 01:39:40;;;;;;;13.32;6.10;;;8.30;1.00;;;;;;5012509;28;20516;-69
2023/12/09 01:42:08;;;;;;;11.38;5.57;;;8.40;1.00;;;;;;5009460;28;20388;-69
2023/12/09 01:44:33;;;;;;;11.48;5.57;;;8.40;1.00;;;;;;5020551;28;20379;-69
2023/12/09 01:46:59;;;;;;;11.67;5.63;;;8.20;1.00;;;;;;5019656;28;20410;-69
2023/12/09 01:49:25;;;;;;;13.57;5.80;;;8.10;1.00;;;;;;5028056;28;20423;-69
2023/12/09 01:51:50;;;;;;;11.02;5.25;;;8.20;1.00;;;;;;5028571;28;20391;-69
2023/12/09 01:54:16;;;;;;;11.43;5.10;;;8.40;1.00;;;;;;5015374;28;20491;-69
2023/12/09 01:56:41;;;;;;;12.57;5.10;;;8.50;1.00;;;;;;5019854;28;20506;-69
2023/12/09 01:59:07;;;;;;;19.23;5.70;;;8.40;1.00;;;;;;4999040;28;20396;-69
2023/12/09 02:01:35;;;;;;;12.43;5.37;;;8.40;1.00;;;;;;5032438;28;20426;-69
2023/12/09 02:04:01;;;;;;;12.07;5.15;;;8.30;1.00;;;;;;5032138;28;20402;-69
2023/12/09 02:06:26;;;;;;;11.30;5.00;;;8.30;1.00;;;;;;5022347;28;20395;-70
2023/12/09 02:08:53;;;;;;;13.67;6.10;;;8.30;1.00;;;;;;5031535;28;20422;-70
2023/12/09 02:11:35;;;;;;;20.00;5.55;;;8.30;1.00;;;;;;5026266;28;20738;-70
2023/12/09 02:14:07;;;;;;;10.40;5.00;;;8.30;1.00;;;;;;5014385;28;20408;-70
2023/12/09 02:16:52;;;;;;;13.75;5.60;;;8.40;1.00;;;;;;5014486;28;20385;-69
2023/12/09 02:19:18;;;;;;;10.13;4.87;;;8.40;1.00;;;;;;5005324;28;20416;-69
2023/12/09 02:22:06;;;;;;;11.37;4.93;;;8.40;1.00;;;;;;5019125;28;20405;-69
2023/12/09 02:24:33;;;;;;;13.07;5.50;;;8.40;1.00;;;;;;5024506;28;20427;-68
2023/12/09 02:27:18;;;;;;;13.95;4.90;;;8.50;1.00;;;;;;5022288;28;20748;-69
2023/12/09 02:30:02;;;;;;;9.57;5.18;;;8.30;1.00;;;;;;5009643;28;20820;-69
2023/12/09 02:32:33;;;;;;;9.88;4.80;;;8.10;1.00;;;;;;5018553;28;20387;-69
2023/12/09 02:35:01;;;;;;;10.77;4.20;;;8.00;1.00;;;;;;5025294;28;20393;-69
2023/12/09 02:37:28;;;;;;;8.13;3.40;;;8.00;1.00;;;;;;5004391;28;20507;-69
2023/12/09 02:39:54;;;;;;;9.50;3.70;;;8.10;1.00;;;;;;5011833;28;20419;-69
2023/12/09 02:42:20;;;;;;;16.23;5.13;;;8.30;1.00;;;;;;5011820;28;20392;-69
2023/12/09 02:44:46;;;;;;;11.73;4.35;;;8.40;1.00;;;;;;5011855;28;20745;-69
2023/12/09 02:47:13;;;;;;;10.35;4.03;;;8.40;1.00;;;;;;5004029;28;20820;-69
2023/12/09 02:49:39;;;;;;;7.57;3.50;;;8.40;1.00;;;;;;4998638;28;20429;-69
2023/12/09 02:52:05;;;;;;;8.90;3.17;;;8.30;1.00;;;;;;5012431;28;20855;-69
2023/12/09 02:54:30;;;;;;;10.93;4.05;;;8.30;1.00;;;;;;5011430;28;20397;-69
2023/12/09 02:56:56;;;;;;;9.47;3.90;;;8.30;1.00;;;;;;4995988;28;20395;-69
2023/12/09 02:59:21;;;;;;;10.40;3.67;;;8.20;1.00;;;;;;4992456;28;20898;-69
2023/12/09 03:01:47;;;;;;;9.35;3.40;;;8.20;1.00;;;;;;4995783;28;20491;-69
2023/12/09 03:04:13;;;;;;;8.30;3.30;;;8.20;1.00;;;;;;5011959;28;20421;-69
2023/12/09 03:06:39;;;;;;;7.72;3.13;;;8.10;1.00;;;;;;4998483;28;20390;-69
2023/12/09 03:09:05;;;;;;;9.83;4.37;;;8.00;1.00;;;;;;4991953;28;20489;-69
2023/12/09 03:11:31;;;;;;;9.40;3.73;;;8.10;1.00;;;;;;4991713;28;20421;-69
2023/12/09 03:13:56;;;;;;;8.52;4.05;;;8.20;1.00;;;;;;5003624;28;20765;-69
2023/12/09 03:16:22;;;;;;;11.23;4.38;;;8.40;1.00;;;;;;5000731;28;20474;-69
2023/12/09 03:18:48;;;;;;;8.50;3.77;;;8.30;1.00;;;;;;4991893;28;20394;-69
2023/12/09 03:21:15;;;;;;;9.40;3.65;;;8.30;1.00;;;;;;4991737;28;20399;-69
2023/12/09 03:23:44;;;;;;;9.35;3.83;;;8.30;1.00;;;;;;4999396;28;20389;-69
2023/12/09 03:26:19;;;;;;;9.25;4.40;;;8.40;1.00;;;;;;4991604;28;20422;-69
2023/12/09 03:28:45;;;;;;;9.98;4.47;;;8.50;1.00;;;;;;4991586;28;20390;-69
2023/12/09 03:31:15;;;;;;;10.10;4.50;;;8.60;1.00;;;;;;4991589;28;20394;-69
2023/12/09 03:33:41;;;;;;;9.25;4.35;;;8.70;1.00;;;;;;4991532;28;20414;-69
2023/12/09 03:36:08;;;;;;;9.67;4.07;;;8.70;1.00;;;;;;5007153;28;20757;-69
2023/12/09 03:38:34;;;;;;;11.95;4.53;;;8.50;1.00;;;;;;5027538;28;20650;-69
2023/12/09 03:41:04;;;;;;;9.80;4.40;;;8.40;1.00;;;;;;5030937;28;20481;-69
2023/12/09 03:43:29;;;;;;;8.77;3.80;;;8.30;1.00;;;;;;5030534;28;20387;-69
2023/12/09 03:45:55;;;;;;;10.13;4.23;;;8.30;1.00;;;;;;5010632;28;20484;-69
2023/12/09 03:48:20;;;;;;;11.13;4.50;;;8.20;1.00;;;;;;5029441;28;20445;-69
2023/12/09 03:50:46;;;;;;;11.87;4.93;;;8.20;1.00;;;;;;5030837;28;20407;-69
2023/12/09 03:53:11;;;;;;;12.00;4.77;;;8.10;1.00;;;;;;5030404;28;20744;-70
2023/12/09 03:55:37;;;;;;;12.50;5.43;;;7.90;1.00;;;;;;5013697;28;20416;-70
2023/12/09 03:58:04;;;;;;;10.37;4.43;;;7.80;1.00;;;;;;5011025;28;20801;-70
2023/12/09 04:00:30;;;;;;;12.98;4.78;;;7.70;1.00;;;;;;5010616;28;20384;-69
2023/12/09 04:02:55;;;;;;;12.47;4.93;;;7.40;1.00;;;;;;5010764;28;20385;-69
2023/12/09 04:05:21;;;;;;;12.20;5.13;;;7.30;1.00;;;;;;5010611;28;20436;-70
2023/12/09 04:07:47;;;;;;;14.95;5.55;;;7.10;1.00;;;;;;4993793;28;20404;-70
2023/12/09 04:10:12;;;;;;;14.10;5.90;;;7.00;1.00;;;;;;5010460;28;20812;-70
2023/12/09 04:12:38;;;;;;;12.32;5.40;;;7.00;1.00;;;;;;5010720;28;20400;-70
2023/12/09 04:15:04;;;;;;;12.13;5.33;;;7.00;1.90;;;;;;5010153;28;20761;-70
2023/12/09 04:17:29;;;;;;;13.02;5.70;;;6.90;4.30;;;;;;5010499;28;20393;-70
2023/12/09 04:19:55;;;;;;;14.53;6.17;;;6.80;62.40;;;;;;5009352;28;20901;-70
2023/12/09 04:22:21;;;;;;;15.00;5.60;;;6.80;99.90;;;;;;5018555;28;20398;-70
2023/12/09 04:24:47;;;;;;;12.27;5.00;;;6.80;44.30;;;;;;5020575;28;20873;-70
2023/12/09 04:27:12;;;;;;;12.00;5.77;;;6.70;99.90;;;;;;5023831;28;20462;-70
2023/12/09 04:29:38;;;;;;;12.68;6.10;;;6.70;99.90;;;;;;5018474;28;20431;-70
2023/12/09 04:32:04;;;;;;;13.47;6.07;;;6.80;99.90;;;;;;5010156;28;20393;-70
2023/12/09 04:34:29;;;;;;;11.35;5.40;;;6.90;99.90;;;;;;5016299;28;20490;-71
2023/12/09 04:36:56;;;;;;;11.73;5.50;;;7.00;99.90;;;;;;5009485;28;20776;-71
2023/12/09 04:39:21;;;;;;;18.55;5.90;;;7.20;99.90;;;;;;4998524;28;20883;-71
2023/12/09 04:41:47;;;;;;;13.13;5.90;;;7.40;99.90;;;;;;4989984;28;20453;-71
2023/12/09 04:44:13;;;;;;;11.38;4.50;;;7.40;99.90;;;;;;4993847;28;20404;-71
2023/12/09 04:46:38;;;;;;;13.77;5.70;;;7.50;99.90;;;;;;5010607;28;20400;-71
2023/12/09 04:49:04;;;;;;;11.50;4.93;;;7.40;99.90;;;;;;5000885;28;20813;-71
2023/12/09 04:51:30;;;;;;;10.63;4.70;;;7.40;97.10;;;;;;4990045;28;20491;-71
2023/12/09 04:53:55;;;;;;;13.30;5.60;;;7.50;99.90;;;;;;4990863;28;20477;-70
2023/12/09 04:56:21;;;;;;;12.23;4.93;;;7.50;13.80;;;;;;4994821;28;20413;-70
2023/12/09 04:58:46;;;;;;;10.77;4.60;;;7.40;1.00;;;;;;4989838;28;20430;-70
2023/12/09 05:01:12;;;;;;;13.82;5.53;;;7.40;1.00;;;;;;4989742;28;20398;-70
2023/12/09 05:03:37;;;;;;;9.90;4.53;;;7.50;1.00;;;;;;4988873;28;20398;-70
2023/12/09 05:06:04;;;;;;;10.77;5.10;;;7.40;1.00;;;;;;4989879;28;20490;-70
2023/12/09 05:08:30;;;;;;;13.45;5.75;;;7.50;1.00;;;;;;4989636;28;20763;-71
2023/12/09 05:10:55;;;;;;;12.40;5.20;;;7.50;1.00;;;;;;4989096;28;20422;-70
2023/12/09 05:13:21;;;;;;;13.15;5.50;;;7.60;1.00;;;;;;4991258;28;20398;-70
2023/12/09 05:15:48;;;;;;;10.02;4.05;;;7.50;1.00;;;;;;4989712;28;20398;-70
2023/12/09 05:18:14;;;;;;;17.33;5.15;;;7.50;1.00;;;;;;4989852;28;20385;-70
2023/12/09 05:20:39;;;;;;;11.98;5.30;;;7.50;1.00;;;;;;4989509;28;20758;-70
2023/12/09 05:23:06;;;;;;;9.13;4.40;;;7.60;1.00;;;;;;4990767;28;20946;-70
2023/12/09 05:25:32;;;;;;;10.70;4.55;;;7.70;1.00;;;;;;4988881;28;20755;-70
2023/12/09 05:27:58;;;;;;;9.20;4.05;;;7.60;1.00;;;;;;4989142;28;20918;-69
2023/12/09 05:30:23;;;;;;;8.57;4.13;;;7.80;1.00;;;;;;4988699;28;20422;-69
2023/12/09 05:32:49;;;;;;;10.90;5.00;;;7.90;1.00;;;;;;4989115;28;20391;-69
2023/12/09 05:35:15;;;;;;;10.97;4.70;;;7.90;1.00;;;;;;4989537;28;20546;-69
2023/12/09 05:37:40;;;;;;;11.27;5.20;;;7.90;1.00;;;;;;4998293;28;20809;-69
2023/12/09 05:40:07;;;;;;;14.13;5.40;;;7.80;1.00;;;;;;5009356;28;20903;-70
2023/12/09 05:42:33;;;;;;;12.57;5.65;;;7.70;1.00;;;;;;5005672;28;20398;-69
2023/12/09 05:44:58;;;;;;;11.67;4.83;;;7.70;1.00;;;;;;4999731;28;20451;-69
2023/12/09 05:47:24;;;;;;;12.02;5.32;;;7.60;1.00;;;;;;5008471;28;20820;-69
2023/12/09 05:49:50;;;;;;;14.60;5.50;;;7.70;1.00;;;;;;4998799;28;20426;-69
2023/12/09 05:52:16;;;;;;;13.00;5.50;;;7.60;1.00;;;;;;4993445;28;20408;-69
2023/12/09 05:54:42;;;;;;;12.90;4.93;;;7.60;1.00;;;;;;4996912;28;20757;-69
2023/12/09 05:57:07;;;;;;;12.53;5.50;;;7.60;1.00;;;;;;5008686;28;20395;-69
2023/12/09 05:59:33;;;;;;;12.32;4.90;;;7.60;1.00;;;;;;5008814;28;20389;-69
2023/12/09 06:01:59;;;;;;;11.03;5.33;;;7.50;1.00;;;;;;4993733;28;20741;-69
2023/12/09 06:04:24;;;;;;;13.35;4.95;;;7.50;1.00;;;;;;4995234;28;20909;-69
2023/12/09 06:06:50;;;;;;;10.93;3.93;;;7.50;1.00;;;;;;5006488;28;20405;-68
2023/12/09 06:09:15;;;;;;;11.00;4.32;;;7.50;1.00;;;;;;5002992;28;20422;-68
2023/12/09 06:11:41;;;;;;;11.20;5.10;;;7.50;1.00;;;;;;4998000;28;20404;-69
2023/12/09 06:14:07;;;;;;;10.20;4.80;;;7.40;1.00;;;;;;5003394;28;20451;-70
2023/12/09 06:16:33;;;;;;;11.30;4.43;;;7.50;1.00;;;;;;5008428;28;20458;-69
2023/12/09 06:18:59;;;;;;;8.32;3.95;;;7.50;1.00;;;;;;5008555;28;21466;-69
2023/12/09 06:21:26;;;;;;;11.70;5.47;;;7.50;1.00;;;;;;5001987;28;20395;-70
2023/12/09 06:23:52;;;;;;;10.40;4.78;;;7.60;1.00;;;;;;5005729;28;20556;-70
2023/12/09 06:26:18;;;;;;;10.82;4.18;;;7.70;1.00;;;;;;5008483;28;20483;-70
2023/12/09 06:28:44;;;;;;;9.85;4.38;;;7.70;1.00;;;;;;4994524;28;20402;-70
2023/12/09 06:31:12;;;;;;;14.60;4.63;;;7.80;1.00;;;;;;5004605;28;20753;-70
2023/12/09 06:33:38;;;;;;;10.57;4.60;;;7.80;1.00;;;;;;4998177;28;20394;-70
2023/12/09 06:36:05;;;;;;;13.02;4.50;;;7.80;1.00;;;;;;4996787;28;20404;-70
2023/12/09 06:38:32;;;;;;;11.20;4.15;;;7.80;1.00;;;;;;5023471;28;20414;-70
2023/12/09 06:40:57;;;;;;;9.30;4.00;;;7.70;1.00;;;;;;5027063;28;20393;-70
2023/12/09 06:43:23;;;;;;;7.17;3.20;;;7.90;1.00;;;;;;5021056;28;20407;-70
2023/12/09 06:45:49;;;;;;;10.07;4.20;;;7.90;1.00;;;;;;5017374;28;20391;-69
2023/12/09 06:48:14;;;;;;;9.83;3.73;;;7.90;1.00;;;;;;5027524;28;20412;-69
2023/12/09 06:50:40;;;;;;;10.87;3.90;;;7.90;1.00;;;;;;5026690;28;20421;-69
2023/12/09 06:53:06;;;;;;;9.88;4.07;;;7.80;1.00;;;;;;5011676;28;20405;-69
2023/12/09 06:55:32;;;;;;;8.68;3.47;;;7.80;1.00;;;;;;5018141;28;20469;-71
2023/12/09 06:57:57;;;;;;;9.00;3.13;;;7.70;1.00;;;;;;5018099;28;20805;-68
2023/12/09 07:00:23;;;;;;;11.50;3.60;;;7.80;1.00;;;;;;5014757;28;20910;-70
2023/12/09 07:02:48;;;;;;;8.30;3.10;;;7.80;1.00;;;;;;5013208;28;20389;-69
2023/12/09 07:05:15;;;;;;;9.70;3.20;;;7.80;1.00;;;;;;5007836;28;20444;-69
2023/12/09 07:07:40;;;;;;;7.90;3.00;;;7.80;1.00;;;;;;5004341;28;20440;-69
2023/12/09 07:10:08;;;;;;;8.10;2.80;;;7.80;1.00;;;;;;5011526;28;20451;-76
2023/12/09 07:12:34;;;;;;;11.23;2.40;;;7.80;1.00;;;;;;5007023;28;20418;-76
2023/12/09 07:14:59;;;;;;;7.23;2.20;;;7.80;1.00;;;;;;5010370;28;20911;-77
2023/12/09 07:17:25;;;;;;;6.90;1.70;;;7.90;1.00;;;;;;5010941;28;20701;-76
2023/12/09 07:19:52;;;;;;;9.10;2.17;;;7.90;1.00;;;;;;4992955;28;20436;-76
2023/12/09 07:22:18;;;;;;;7.20;2.70;;;7.90;1.00;;;;;;5005043;28;20416;-76
2023/12/09 07:24:44;;;;;;;6.38;2.47;;;7.90;1.00;;;;;;5008895;28;20745;-75
2023/12/09 07:27:09;;;;;;;6.77;2.00;;;7.90;1.00;;;;;;5004231;28;20409;-76
2023/12/09 07:29:35;;;;;;;6.22;1.90;;;7.90;1.00;;;;;;5011637;28;20931;-76
2023/12/09 07:32:00;;;;;;;5.23;1.53;;;7.90;1.00;;;;;;5009619;28;20401;-76
2023/12/09 07:34:26;;;;;;;10.00;2.30;;;8.00;1.00;;;;;;5010158;28;20401;-68
2023/12/09 07:36:52;;;;;;;8.07;2.40;;;8.00;1.00;;;;;;5007365;28;20495;-69
2023/12/09 07:39:17;;;;;;;9.00;2.63;;;8.00;1.00;;;;;;4994208;28;20916;-68
2023/12/09 07:41:43;;;;;;;7.40;2.20;;;7.90;1.00;;;;;;4985663;28;20513;-68
2023/12/09 07:44:09;;;;;;;7.35;2.30;;;7.90;1.00;;;;;;4995415;28;20398;-69
2023/12/09 07:46:36;;;;;;;5.20;1.90;;;7.90;1.00;;;;;;4991822;28;20476;-69
2023/12/09 07:49:01;;;;;;;6.72;1.95;;;7.90;1.00;;;;;;4998275;28;20991;-69
2023/12/09 07:51:27;;;;;;;8.87;2.67;;;8.00;1.00;;;;;;4986814;28;20434;-69
2023/12/09 07:53:53;;;;;;;7.35;2.40;;;8.10;1.00;;;;;;4991036;28;20422;-69
2023/12/09 07:56:18;;;;;;;7.00;2.23;;;8.30;1.00;;;;;;4999040;28;20515;-69
2023/12/09 07:58:45;;;;;;;8.30;2.35;;;8.20;1.00;;;;;;5002421;28;20892;-69
2023/12/09 08:01:11;;;;;;;6.28;2.00;;;8.40;1.00;;;;;;4989279;28;20886;-69
2023/12/09 08:03:37;;;;;;;6.50;1.95;;;8.50;1.00;;;;;;4989695;28;20462;-69
2023/12/09 08:06:02;;;;;;;6.15;2.20;;;8.40;1.00;;;;;;4981156;28;20419;-69
2023/12/09 08:08:28;;;;;;;8.03;2.50;;;8.20;1.00;;;;;;4988017;28;20530;-69
2023/12/09 08:10:54;;;;;;;8.05;1.92;;;8.20;1.00;;;;;;4993048;28;20435;-69
2023/12/09 08:13:19;;;;;;;7.67;1.93;;;8.10;1.00;;;;;;4984503;28;20414;-68
2023/12/09 08:15:45;;;;;;;7.30;2.07;;;8.00;1.00;;;;;;4990131;28;20402;-69
2023/12/09 08:18:10;;;;;;;9.02;2.35;;;8.10;1.00;;;;;;4983031;28;20928;-69
2023/12/09 08:20:36;;;;;;;7.40;2.40;;;8.20;1.00;;;;;;4984286;28;20400;-69
2023/12/09 08:23:03;;;;;;;11.13;2.40;;;8.30;1.00;;;;;;4982282;28;20415;-69
2023/12/09 08:25:29;;;;;;;10.80;2.50;;;8.40;1.00;;;;;;4989808;28;20416;-69
2023/12/09 08:27:54;;;;;;;8.70;2.38;;;8.60;1.00;;;;;;4988329;28;20458;-69
2023/12/09 08:30:20;;;;;;;6.73;2.30;;;8.70;1.00;;;;;;4987976;28;20430;-69
2023/12/09 08:32:46;;;;;;;9.07;2.33;;;8.60;1.00;;;;;;4984321;28;20431;-69
2023/12/09 08:35:11;;;;;;;9.30;2.00;;;8.60;1.00;;;;;;4986050;28;20405;-69
2023/12/09 08:37:38;;;;;;;6.03;1.95;;;8.60;1.00;;;;;;4993035;28;20791;-69
2023/12/09 08:40:13;;;;;;;7.10;1.90;;;8.50;1.00;;;;;;5007088;28;20453;-69
2023/12/09 08:42:45;;;;;;;7.53;1.83;;;8.40;1.00;;;;;;5001423;28;20421;-69
2023/12/09 08:45:13;;;;;;;7.20;1.80;;;8.50;1.00;;;;;;5020489;28;20707;-69
2023/12/09 08:47:39;;;;;;;7.20;1.83;;;8.80;1.00;;;;;;5002517;28;20410;-69
2023/12/09 08:50:05;;;;;;;6.10;1.70;;;9.20;1.00;;;;;;5008745;28;20429;-69
2023/12/09 08:52:33;;;;;;;6.57;1.60;;;9.60;1.00;;;;;;5007349;28;21216;-69
2023/12/09 08:54:59;;;;;;;7.38;2.00;;;9.70;1.00;;;;;;5000437;28;20417;-69
2023/12/09 08:57:26;;;;;;;5.60;1.40;;;9.70;1.00;;;;;;5000717;28;20937;-69
2023/12/09 08:59:51;;;;;;;7.87;1.83;;;9.60;1.00;;;;;;5002037;28;20408;-69
2023/12/09 09:02:17;;;;;;;5.95;1.50;;;9.50;1.00;;;;;;5004147;28;20426;-69
2023/12/09 09:04:43;;;;;;;8.33;1.90;;;9.30;1.00;;;;;;5006734;28;20416;-69
2023/12/09 09:07:11;;;;;;;8.25;1.58;;;9.30;1.00;;;;;;5013571;28;20396;-69
2023/12/09 09:09:40;;;;;;;6.15;1.50;;;9.30;1.00;;;;;;5008864;28;20720;-69
2023/12/09 09:12:08;;;;;;;7.05;1.75;;;9.20;1.00;;;;;;5016971;28;20401;-69
2023/12/09 09:14:36;;;;;;;6.28;2.25;;;9.10;1.00;;;;;;5010031;28;20793;-70
2023/12/09 09:17:05;;;;;;;9.30;2.95;;;9.20;1.00;;;;;;5005228;28;20901;-70
2023/12/09 09:19:30;;;;;;;7.07;1.90;;;9.30;1.00;;;;;;5005075;28;20496;-70
2023/12/09 09:21:56;;;;;;;6.90;1.45;;;9.50;1.00;;;;;;5001277;28;20590;-70
2023/12/09 09:24:22;;;;;;;6.80;1.40;;;9.50;1.00;;;;;;5007517;28;20960;-69
2023/12/09 09:26:48;;;;;;;7.80;1.30;;;9.40;1.00;;;;;;5002678;28;20497;-69
2023/12/09 09:29:13;;;;;;;7.30;1.58;;;9.30;1.00;;;;;;5005641;28;20824;-69
2023/12/09 09:31:39;;;;;;;4.60;1.10;;;9.00;1.00;;;;;;5007357;28;20476;-69
2023/12/09 09:34:04;;;;;;;8.93;1.60;;;9.00;1.00;;;;;;4997533;28;20397;-69
2023/12/09 09:36:30;;;;;;;5.83;1.30;;;9.10;1.00;;;;;;5001953;28;20404;-70
2023/12/09 09:38:56;;;;;;;4.63;1.30;;;9.10;1.00;;;;;;4980374;28;20418;-69
2023/12/09 09:41:28;;;;;;;5.30;1.08;;;9.10;1.00;;;;;;4983454;28;20406;-69
2023/12/09 09:43:59;;;;;;;5.13;1.20;;;9.20;1.00;;;;;;4979813;28;20462;-69
2023/12/09 09:46:26;;;;;;;5.50;1.35;;;9.20;1.00;;;;;;4987442;28;20410;-69
2023/12/09 09:48:53;;;;;;;5.25;1.40;;;9.20;1.00;;;;;;4983204;28;20426;-69
2023/12/09 09:51:26;;;;;;;5.43;0.80;;;9.10;1.00;;;;;;4984285;28;20414;-69
2023/12/09 09:54:19;;;;;;;4.95;1.00;;;9.20;1.00;;;;;;4979881;28;20474;-69
2023/12/09 09:56:45;;;;;;;5.95;1.38;;;9.10;1.00;;;;;;4977440;28;20439;-69
2023/12/09 09:59:11;;;;;;;8.37;1.30;;;9.00;1.00;;;;;;4986287;28;20456;-69
2023/12/09 10:01:38;;;;;;;5.95;1.40;;;9.00;1.00;;;;;;4985526;28;20409;-69
2023/12/09 10:04:03;;;;;;;8.88;2.08;;;9.10;1.00;;;;;;4993522;28;20419;-70
2023/12/09 10:06:29;;;;;;;5.10;1.40;;;9.30;1.00;;;;;;4995959;28;20489;-70
2023/12/09 10:08:57;;;;;;;5.65;1.63;;;9.40;1.00;;;;;;4979198;28;20516;-70
2023/12/09 10:11:22;;;;;;;5.10;1.00;;;9.50;1.00;;;;;;4983072;28;20426;-70
2023/12/09 10:13:48;;;;;;;4.40;0.90;;;9.30;1.00;;;;;;4983806;28;20409;-70
2023/12/09 10:16:14;;;;;;;5.90;1.30;;;9.00;1.00;;;;;;4987607;28;20438;-70
2023/12/09 10:18:47;;;;;;;5.33;1.20;;;9.20;1.00;;;;;;4982066;28;20422;-69
2023/12/09 10:21:13;;;;;;;6.63;1.20;;;9.40;1.00;;;;;;4979587;28;20419;-69
2023/12/09 10:23:40;;;;;;;4.93;1.40;;;9.50;1.00;;;;;;4984986;28;20418;-69
2023/12/09 10:26:06;;;;;;;5.78;1.50;;;9.70;1.00;;;;;;4986342;28;20780;-69
2023/12/09 10:28:33;;;;;;;6.53;1.50;;;9.80;1.00;;;;;;4988797;28;20411;-69
2023/12/09 10:31:02;;;;;;;5.90;1.70;;;9.80;1.00;;;;;;4980482;28;20435;-69
2023/12/09 10:33:32;;;;;;;5.75;1.30;;;9.70;1.00;;;;;;4989324;28;20418;-69
2023/12/09 10:36:00;;;;;;;4.93;1.30;;;9.70;1.00;;;;;;4982316;28;20759;-69
2023/12/09 10:38:25;;;;;;;6.07;1.50;;;9.60;1.00;;;;;;5012442;28;20431;-69
2023/12/09 10:40:51;;;;;;;6.30;1.50;;;9.50;1.00;;;;;;5002056;28;20424;-69
2023/12/09 10:43:17;;;;;;;7.30;1.10;;;9.50;1.00;;;;;;5001057;28;20417;-69
2023/12/09 10:45:43;;;;;;;5.30;1.50;;;9.60;1.00;;;;;;5014268;28;20410;-70
2023/12/09 10:48:08;;;;;;;6.40;1.50;;;9.60;1.00;;;;;;5001793;28;20401;-69
2023/12/09 10:50:37;;;;;;;6.13;1.33;;;9.70;1.00;;;;;;5004811;28;20805;-69
2023/12/09 10:53:04;;;;;;;5.10;1.23;;;9.80;1.00;;;;;;5004132;28;20433;-69
2023/12/09 10:55:30;;;;;;;7.60;1.42;;;9.80;1.00;;;;;;5023696;28;20422;-70
2023/12/09 10:57:57;;;;;;;7.93;1.20;;;9.80;1.00;;;;;;5011624;28;20421;-69
2023/12/09 11:00:24;;;;;;;10.10;1.40;;;9.90;1.00;;;;;;5003395;28;20398;-69
2023/12/09 11:02:52;;;;;;;10.10;1.40;;;10.00;1.00;;;;;;4999138;28;20438;-69
2023/12/09 11:05:19;;;;;;;8.20;1.50;;;10.00;1.00;;;;;;5007387;28;20428;-70
2023/12/09 11:07:47;;;;;;;5.60;1.20;;;10.40;1.00;;;;;;5014244;28;21140;-69
2023/12/09 11:10:13;;;;;;;5.00;1.30;;;10.70;1.00;;;;;;5005602;28;20436;-68
2023/12/09 11:12:41;;;;;;;4.70;1.20;;;11.20;1.00;;;;;;5008291;28;20475;-69
2023/12/09 11:15:13;;;;;;;5.10;1.00;;;11.30;1.00;;;;;;5009281;28;20408;-69
2023/12/09 11:17:49;;;;;;;8.30;1.40;;;11.20;1.00;;;;;;4998582;28;20458;-71
2023/12/09 11:20:17;;;;;;;5.60;1.30;;;11.20;1.00;;;;;;5007961;28;20408;-70
2023/12/09 11:22:47;;;;;;;5.90;1.55;;;11.00;1.00;;;;;;5011060;28;20407;-69
2023/12/09 11:25:18;;;;;;;5.63;1.25;;;10.80;1.00;;;;;;5005189;28;20474;-70
2023/12/09 11:27:48;;;;;;;5.18;1.40;;;10.60;1.00;;;;;;5009514;28;20430;-70
2023/12/09 11:30:34;;;;;;;5.00;1.35;;;10.60;1.00;;;;;;5005653;28;20424;-70
2023/12/09 11:33:00;;;;;;;4.85;1.33;;;10.50;1.00;;;;;;5009688;28;20408;-70
2023/12/09 11:35:27;;;;;;;8.93;1.50;;;10.40;1.00;;;;;;4999731;28;20505;-70
2023/12/09 11:37:54;;;;;;;7.70;1.30;;;10.20;1.00;;;;;;5000777;28;20456;-68
2023/12/09 11:40:21;;;;;;;6.30;1.60;;;10.00;1.00;;;;;;5002636;28;21932;-69
2023/12/09 11:42:47;;;;;;;5.87;1.43;;;10.00;1.00;;;;;;4999991;28;20406;-69
2023/12/09 11:45:13;;;;;;;7.20;1.90;;;10.00;1.00;;;;;;5003546;28;20397;-69
2023/12/09 11:47:40;;;;;;;5.40;1.70;;;10.00;1.00;;;;;;4998051;28;20401;-69
2023/12/09 11:50:10;;;;;;;5.13;1.38;;;10.00;1.00;;;;;;5007046;28;20428;-70
2023/12/09 11:52:35;;;;;;;6.25;1.70;;;10.00;1.00;;;;;;4991068;28;20788;-70
2023/12/09 11:55:06;;;;;;;5.37;1.40;;;9.90;1.00;;;;;;5000930;28;20426;-69
2023/12/09 11:57:31;;;;;;;6.07;1.60;;;9.90;1.00;;;;;;5007463;28;20415;-70
2023/12/09 11:59:57;;;;;;;6.00;1.30;;;9.90;1.00;;;;;;5014875;28;20417;-73
2023/12/09 12:02:23;;;;;;;7.55;1.70;;;9.80;1.00;;;;;;5010491;28;20392;-70
2023/12/09 12:04:48;;;;;;;5.97;2.43;;;9.80;1.00;;;;;;5008850;28;20408;-72
2023/12/09 12:07:14;;;;;;;6.33;2.20;;;10.00;1.00;;;;;;5000304;28;20787;-70
2023/12/09 12:09:40;;;;;;;4.97;1.35;;;10.10;1.00;;;;;;5009766;28;20428;-70
2023/12/09 12:12:06;;;;;;;5.80;2.15;;;10.00;1.00;;;;;;4999717;28;20407;-69
2023/12/09 12:14:32;;;;;;;5.63;1.83;;;9.90;1.00;;;;;;5004356;28;20499;-70
2023/12/09 12:17:00;;;;;;;7.28;2.70;;;9.90;1.00;;;;;;5004238;28;20505;-70
2023/12/09 12:19:26;;;;;;;7.40;2.45;;;9.90;1.00;;;;;;5008800;28;20431;-70
2023/12/09 12:21:53;;;;;;;6.82;2.35;;;10.00;1.00;;;;;;5025608;28;20500;-69
2023/12/09 12:24:18;;;;;;;9.50;2.83;;;10.00;1.00;;;;;;4998615;28;20411;-70
2023/12/09 12:26:44;;;;;;;7.40;2.60;;;10.10;1.00;;;;;;5000132;28;20408;-70
2023/12/09 12:29:09;;;;;;;7.70;2.70;;;10.20;1.00;;;;;;4992848;28;20433;-70
2023/12/09 12:31:35;;;;;;;7.33;2.43;;;10.10;1.00;;;;;;5006899;28;20500;-70
2023/12/09 12:34:17;;;;;;;7.22;2.47;;;10.10;1.00;;;;;;5008310;28;20462;-70
2023/12/09 12:36:52;;;;;;;7.93;2.10;;;10.00;1.00;;;;;;5002466;28;20408;-70
2023/12/09 12:39:17;;;;;;;8.82;2.60;;;9.90;1.00;;;;;;5005919;28;20495;-69
2023/12/09 12:41:44;;;;;;;8.10;2.00;;;9.90;1.00;;;;;;4998098;28;20547;-69
2023/12/09 12:44:11;;;;;;;12.82;1.95;;;9.70;1.00;;;;;;4995077;28;20400;-70
2023/12/09 12:46:37;;;;;;;6.33;2.13;;;9.60;1.00;;;;;;4981649;28;20489;-70
2023/12/09 12:49:03;;;;;;;8.98;2.30;;;9.60;1.00;;;;;;4993679;28;20548;-70
2023/12/09 12:51:29;;;;;;;6.65;2.00;;;9.60;1.00;;;;;;4999003;28;20399;-70
2023/12/09 12:53:55;;;;;;;5.70;1.70;;;9.60;1.00;;;;;;4999315;28;20751;-70
2023/12/09 12:56:21;;;;;;;6.63;1.95;;;9.60;1.00;;;;;;5009284;28;20407;-70